KAPC/APC METAR and TAF weather

Enter ICAO airport designator
Station Type Date Time Source
KAPC METAR 2021/01/27 14:18 UTC NOAA

KAPC 271418Z AUTO 23004KT 10SM SCT017 SCT039 BKN048 09/06 A2976 RMK AO2 RAE12 P0002 T00890056


Station Type Date Time Source
KAPC Decoded METAR 2021/01/27 14:18 UTC NOAA

NAPA COUNTY AIRPORT, CA, United States (KAPC) 38-12N 122-17W 13M
Jan 27, 2021 - 09:18 AM EST / 2021.01.27 1418 UTC
Wind: from the SW (230 degrees) at 5 MPH (4 KT):0
Visibility: 10 mile(s):0
Sky conditions: mostly cloudy
Precipitation last hour: 0.02 inches
Temperature: 48.0 F (8.9 C)
Dew Point: 42.1 F (5.6 C)
Relative Humidity: 79%
Pressure (altimeter): 29.76 in. Hg (1007 hPa)
ob: KAPC 271418Z AUTO 23004KT 10SM SCT017 SCT039 BKN048 09/06 A2976 RMK AO2 RAE12 P0002 T00890056
cycle: 14

Station Type Date Time Source
KAPC TAF 2021/01/27 12:36 UTC NOAA

TAF KAPC 271135Z 2712/2812 10012KT 6SM -SHRA BR OVC018 WS020/22030KT
FM271400 16010KT 6SM -SHRA BR OVC015
FM271800 15011G17KT 6SM -SHRA BR BKN020 OVC030
FM272100 14014G22KT 6SM -SHRA BR BKN025 OVC035
FM280300 11015G25KT 6SM -RA BR SCT015 OVC025
FM280900 11012G17KT 5SM -RA BR BKN015 OVC025

Example: see airport list